^^
Weerstation Genderen Historische Gegevens
 
Daily Summary for August 13, 2020 Units:  Metric    English   Both
Daily Weekly Monthly Yearly
  Current: High: Low: Average:
Temperature: 29.2 °C 29.2 °C 20.7 °C 23.4 °C
Dew Point: 20.3 °C 20.9 °C 17.8 °C 18.7 °C
Humidity: 59% 84% 57.4% 75%
Wind Speed: 3.2km/h 7.9km/h 0km/h 1.8km/h
Wind Gust: 1.8km/h 7.7km/h - -
WindSE - - SE
Pressure: 1010.4 hPa 1011.2 hPa 1010.3 hPa -
Precipitation: 0.0 mm      
 
 
Tabular Data for August 13, 2020
Time Temperature Dew Point Pressure Wind Wind Speed Wind Gust Humidity Rainfall Rate (Hourly) solar
00:04 25.5 °C 18.4 °C 1011.0 hPa ESE 4.2 km/h 2.3 km/h 65% 0.0 mm W/m2
00:09 25.4 °C 18.3 °C 1011.1 hPa ESE 6.6 km/h 3.7 km/h 64.7% 0.0 mm W/m2
00:14 25.4 °C 18.3 °C 1011.0 hPa ESE 4.9 km/h 2.7 km/h 64.7% 0.0 mm W/m2
00:19 25.4 °C 18.2 °C 1011.0 hPa ESE 2.7 km/h 1.6 km/h 64.6% 0.0 mm W/m2
00:24 25.3 °C 18.3 °C 1011.1 hPa Calm     65% 0.0 mm W/m2
00:29 25.2 °C 18.2 °C 1011.0 hPa ESE 0.4 km/h 0.3 km/h 65.1% 0.0 mm W/m2
00:34 25.1 °C 18.3 °C 1011.1 hPa ESE 2.1 km/h 0.6 km/h 66% 0.0 mm W/m2
00:39 25 °C 18.2 °C 1011.1 hPa Calm     66.2% 0.0 mm W/m2
00:44 24.8 °C 18.3 °C 1011.1 hPa Calm     67% 0.0 mm W/m2
00:49 24.7 °C 18.2 °C 1011.0 hPa ESE 1.8 km/h 0.6 km/h 67.1% 0.0 mm W/m2
00:54 24.7 °C 18.4 °C 1011.0 hPa ESE 0.1 km/h 0.5 km/h 68% 0.0 mm W/m2
00:59 24.6 °C 18.3 °C 1011.0 hPa ESE 0.7 km/h 0.5 km/h 68% 0.0 mm W/m2
01:04 24.5 °C 18.3 °C 1011.1 hPa ESE 0.6 km/h 0.2 km/h 68% 0.0 mm W/m2
01:09 24.5 °C 18.2 °C 1011.2 hPa ESE 4.3 km/h 1.4 km/h 68% 0.0 mm W/m2
01:14 24.4 °C 18.3 °C 1011.1 hPa Calm     68.9% 0.0 mm W/m2
01:19 24.2 °C 18.2 °C 1011.1 hPa ESE 3.1 km/h 2.1 km/h 69% 0.0 mm W/m2
01:24 24.1 °C 18.2 °C 1011.1 hPa ESE 4.5 km/h 1.6 km/h 69.6% 0.0 mm W/m2
01:29 24 °C 18.2 °C 1011.0 hPa ESE 3.8 km/h 2.1 km/h 70% 0.0 mm W/m2
01:34 24 °C 18.1 °C 1011.0 hPa ESE 3.3 km/h 2.4 km/h 70% 0.0 mm W/m2
01:39 23.9 °C 18.1 °C 1010.9 hPa ESE 2.9 km/h 2.7 km/h 70.4% 0.0 mm W/m2
01:44 23.8 °C 18.2 °C 1010.9 hPa ESE 4.2 km/h 3.5 km/h 71% 0.0 mm W/m2
01:49 23.7 °C 18.2 °C 1010.8 hPa ESE 4.8 km/h 2.7 km/h 71% 0.0 mm W/m2
01:54 23.6 °C 18.1 °C 1010.8 hPa ESE 3.2 km/h 1.9 km/h 71% 0.0 mm W/m2
01:59 23.6 °C 18.2 °C 1010.9 hPa ESE 1.7 km/h 0.6 km/h 71.9% 0.0 mm W/m2
02:04 23.5 °C 18.2 °C 1010.8 hPa ESE 0.6 km/h 0.3 km/h 72% 0.0 mm W/m2
02:09 23.4 °C 18.1 °C 1010.9 hPa ESE 2.4 km/h 0.8 km/h 72% 0.0 mm W/m2
02:14 23.4 °C 18.1 °C 1010.9 hPa ESE 0.7 km/h   72.2% 0.0 mm W/m2
02:19 23.3 °C 18.2 °C 1010.8 hPa ESE 1 km/h 0.2 km/h 73% 0.0 mm W/m2
02:24 23.2 °C 18.2 °C 1010.8 hPa ESE 3.1 km/h 2.9 km/h 73.4% 0.0 mm W/m2
02:29 23.1 °C 18.2 °C 1010.7 hPa ESE 2.6 km/h 2.1 km/h 74% 0.0 mm W/m2
02:34 23 °C 18.1 °C 1010.6 hPa ESE 4.4 km/h 1.4 km/h 74% 0.0 mm W/m2
02:39 22.9 °C 18.1 °C 1010.6 hPa SE 1.3 km/h 0.8 km/h 74% 0.0 mm W/m2
02:44 22.9 °C 18 °C 1010.6 hPa Calm     74.2% 0.0 mm W/m2
02:49 22.8 °C 18.1 °C 1010.5 hPa SE 1.8 km/h 1.9 km/h 75% 0.0 mm W/m2
02:54 22.7 °C 18.1 °C 1010.6 hPa SE 2.2 km/h 1.1 km/h 75% 0.0 mm W/m2
02:59 22.6 °C 18.1 °C 1010.6 hPa SE 2.2 km/h 0.8 km/h 75.6% 0.0 mm W/m2
03:04 22.6 °C 18.1 °C 1010.5 hPa SE 1.5 km/h 0.3 km/h 76% 0.0 mm W/m2
03:09 22.5 °C 18 °C 1010.5 hPa SE 1.2 km/h 0.5 km/h 76% 0.0 mm W/m2
03:14 22.4 °C 18 °C 1010.5 hPa Calm     76% 0.0 mm W/m2
03:19 22.4 °C 18 °C 1010.6 hPa Calm     76% 0.0 mm W/m2
03:24 22.4 °C 18 °C 1010.6 hPa Calm     76.2% 0.0 mm W/m2
03:29 22.4 °C 18.2 °C 1010.5 hPa Calm     77% 0.0 mm W/m2
03:34 22.3 °C 18.1 °C 1010.5 hPa Calm     77% 0.0 mm W/m2
03:39 22.3 °C 18.1 °C 1010.5 hPa Calm     77% 0.0 mm W/m2
03:44 22.2 °C 18 °C 1010.5 hPa Calm     77.1% 0.0 mm W/m2
03:49 22.2 °C 18.2 °C 1010.5 hPa SE 0.4 km/h   78% 0.0 mm W/m2
03:54 22.2 °C 18.2 °C 1010.5 hPa Calm     78% 0.0 mm W/m2
03:59 22.1 °C 18.1 °C 1010.5 hPa Calm     78% 0.0 mm W/m2
04:04 22.1 °C 18.1 °C 1010.5 hPa Calm     78% 0.0 mm W/m2
04:09 22 °C 18.2 °C 1010.5 hPa Calm     79% 0.0 mm W/m2
04:14 21.9 °C 18.1 °C 1010.5 hPa Calm     79% 0.0 mm W/m2
04:19 21.9 °C 18.1 °C 1010.5 hPa Calm     79% 0.0 mm W/m2
04:24 21.8 °C 18.2 °C 1010.5 hPa Calm     80% 0.0 mm W/m2
04:29 21.8 °C 18.2 °C 1010.5 hPa Calm     80% 0.0 mm W/m2
04:34 21.8 °C 18.1 °C 1010.5 hPa Calm     80% 0.0 mm W/m2
04:39 21.7 °C 18.1 °C 1010.7 hPa Calm     80% 0.0 mm W/m2
04:44 21.6 °C 18 °C 1010.7 hPa Calm     80.1% 0.0 mm W/m2
04:49 21.6 °C 18.2 °C 1010.6 hPa SE 0.4 km/h   81% 0.0 mm W/m2
04:54 21.5 °C 18.1 °C 1010.5 hPa SE 3 km/h 1.6 km/h 81% 0.0 mm W/m2
04:59 21.4 °C 18 °C 1010.5 hPa SE 4.7 km/h 2.9 km/h 81% 0.0 mm W/m2
05:04 21.4 °C 18 °C 1010.4 hPa SE 4.4 km/h 4.3 km/h 81% 0.0 mm W/m2
05:09 21.4 °C 18 °C 1010.3 hPa SE 5.1 km/h 4.5 km/h 81% 0.0 mm W/m2
05:14 21.3 °C 17.9 °C 1010.3 hPa SE 5.7 km/h 3.5 km/h 81% 0.0 mm W/m2
05:19 21.3 °C 17.9 °C 1010.3 hPa SE 4.3 km/h 2.6 km/h 81.2% 0.0 mm W/m2
05:24 21.3 °C 18 °C 1010.3 hPa SE 4.5 km/h 2.9 km/h 82% 0.0 mm W/m2
05:29 21.2 °C 18 °C 1010.4 hPa SE 3.8 km/h 1.6 km/h 82% 0.0 mm W/m2
05:34 21.2 °C 17.9 °C 1010.4 hPa SE 4.3 km/h 2.3 km/h 82% 0.0 mm W/m2
05:39 21.1 °C 17.9 °C 1010.4 hPa SE 5.3 km/h 3.2 km/h 82% 0.0 mm W/m2
05:44 21.1 °C 17.9 °C 1010.5 hPa SE 1.1 km/h 0.8 km/h 82% 0.0 mm W/m2
05:49 21 °C 17.9 °C 1010.5 hPa SE 1.1 km/h 1.1 km/h 82.6% 0.0 mm W/m2
05:54 20.9 °C 17.9 °C 1010.5 hPa SE 5.2 km/h 3.5 km/h 82.9% 0.0 mm W/m2
05:56 20.9 °C 17.9 °C 1010.5 hPa SE 1.9 km/h 0.5 km/h 83% 0.0 mm W/m2
06:04 20.8 °C 17.8 °C 1010.4 hPa SE 3.7 km/h 1.8 km/h 83% 0.0 mm W/m2
06:09 20.8 °C 17.8 °C 1010.5 hPa SE 3.7 km/h 1.8 km/h 83% 0.0 mm W/m2
06:14 20.8 °C 17.8 °C 1010.6 hPa SE 0.9 km/h 0.5 km/h 83% 0.0 mm W/m2
06:19 20.8 °C 17.8 °C 1010.6 hPa SE 0.4 km/h 0.2 km/h 83.2% 0.0 mm W/m2
06:24 20.8 °C 18 °C 1010.7 hPa Calm     84% 0.0 mm W/m2
06:29 20.8 °C 18 °C 1010.7 hPa Calm     84% 0.0 mm W/m2
06:34 20.7 °C 18 °C 1010.7 hPa Calm     84% 0.0 mm W/m2
06:39 20.7 °C 17.9 °C 1010.7 hPa Calm     84% 0.0 mm W/m2
06:44 20.8 °C 18 °C 1010.7 hPa Calm     84% 0.0 mm W/m2
06:49 20.8 °C 18 °C 1010.7 hPa SE 0.3 km/h   84% 0.0 mm W/m2
06:54 20.8 °C 18 °C 1010.7 hPa Calm     84% 0.0 mm W/m2
06:59 20.9 °C 18.1 °C 1010.7 hPa SE 0.7 km/h 0.2 km/h 84% 0.0 mm W/m2
07:04 20.9 °C 18.1 °C 1010.6 hPa SE 1.3 km/h 0.5 km/h 84% 0.0 mm W/m2
07:09 21 °C 18 °C 1010.7 hPa SE 0.6 km/h 0.2 km/h 83% 0.0 mm W/m2
07:14 21 °C 18.1 °C 1010.7 hPa Calm     83.4% 0.0 mm W/m2
07:19 21.1 °C 18.1 °C 1010.7 hPa SE 0.8 km/h 0.2 km/h 83% 0.0 mm W/m2
07:24 21.2 °C 18.2 °C 1010.6 hPa SE 1.5 km/h 0.5 km/h 83% 0.0 mm W/m2
07:29 21.3 °C 18.3 °C 1010.6 hPa SE 0.2 km/h 0.2 km/h 83% 0.0 mm W/m2
07:34 21.4 °C 18.2 °C 1010.6 hPa SE 0.6 km/h 0.2 km/h 82.2% 0.0 mm W/m2
07:39 21.4 °C 18.2 °C 1010.6 hPa Calm     82% 0.0 mm W/m2
07:44 21.5 °C 18.3 °C 1010.4 hPa SE 4.2 km/h 2.3 km/h 82% 0.0 mm W/m2
07:49 21.6 °C 18.4 °C 1010.4 hPa SE 1.3 km/h 0.3 km/h 82% 0.0 mm W/m2
07:54 21.7 °C 18.5 °C 1010.4 hPa SE 1.1 km/h 0.2 km/h 82% 0.0 mm W/m2
07:59 21.8 °C 18.5 °C 1010.4 hPa SE 0.7 km/h 0.3 km/h 81.8% 0.0 mm W/m2
08:04 21.8 °C 18.6 °C 1010.5 hPa Calm     81.8% 0.0 mm W/m2
08:09 21.9 °C 18.7 °C 1010.4 hPa Calm     82% 0.0 mm W/m2
08:14 22 °C 18.6 °C 1010.4 hPa SE 0.1 km/h   81.3% 0.0 mm W/m2
08:19 22 °C 18.6 °C 1010.4 hPa SE 0.6 km/h   81% 0.0 mm W/m2
08:24 22.1 °C 18.7 °C 1010.4 hPa SE 0.5 km/h   81% 0.0 mm W/m2
08:29 22.2 °C 18.8 °C 1010.5 hPa Calm     81% 0.0 mm W/m2
08:34 22.3 °C 18.8 °C 1010.6 hPa Calm     81% 0.0 mm W/m2
08:39 22.3 °C 18.9 °C 1010.7 hPa SE 1.5 km/h 0.3 km/h 81% 0.0 mm W/m2
08:44 22.4 °C 18.9 °C 1010.7 hPa SE 0.3 km/h 0.3 km/h 81% 0.0 mm W/m2
08:49 22.4 °C 19 °C 1010.7 hPa SE 2.9 km/h 2.7 km/h 81% 0.0 mm W/m2
08:54 22.5 °C 19.1 °C 1010.7 hPa SE 0.2 km/h 0.3 km/h 81% 0.0 mm W/m2
08:57 22.6 °C 19.1 °C 1010.7 hPa SE 1.4 km/h 0.3 km/h 80.6% 0.0 mm W/m2
09:04 22.7 °C 19.1 °C 1010.7 hPa Calm     80% 0.0 mm W/m2
09:09 22.8 °C 19.2 °C 1010.7 hPa SE 0.4 km/h   80% 0.0 mm W/m2
09:14 22.9 °C 19.3 °C 1010.7 hPa Calm     80% 0.0 mm W/m2
09:19 23 °C 19.4 °C 1010.8 hPa Calm     80% 0.0 mm W/m2
09:24 23.1 °C 19.3 °C 1010.8 hPa Calm     79.3% 0.0 mm W/m2
09:29 23.2 °C 19.4 °C 1010.8 hPa Calm     79% 0.0 mm W/m2
09:34 23.4 °C 19.5 °C 1010.7 hPa Calm     78.6% 0.0 mm W/m2
09:39 23.5 °C 19.4 °C 1010.7 hPa Calm     77.7% 0.0 mm W/m2
09:44 23.6 °C 19.5 °C 1010.7 hPa Calm     77.8% 0.0 mm W/m2
09:49 23.7 °C 19.4 °C 1010.8 hPa Calm     77% 0.0 mm W/m2
09:54 23.8 °C 19.5 °C 1010.7 hPa Calm     77% 0.0 mm W/m2
09:59 23.9 °C 19.7 °C 1010.6 hPa Calm     77% 0.0 mm W/m2
10:04 24 °C 19.6 °C 1010.6 hPa Calm     76.3% 0.0 mm W/m2
10:09 24.1 °C 19.7 °C 1010.7 hPa Calm     76.5% 0.0 mm W/m2
10:14 24.3 °C 19.8 °C 1010.6 hPa Calm     76% 0.0 mm W/m2
10:19 24.4 °C 19.7 °C 1010.6 hPa Calm     75.3% 0.0 mm W/m2
10:24 24.5 °C 19.8 °C 1010.6 hPa Calm     75% 0.0 mm W/m2
10:29 24.7 °C 20 °C 1010.5 hPa Calm     74.8% 0.0 mm W/m2
10:34 24.9 °C 19.8 °C 1010.5 hPa Calm     73.5% 0.0 mm W/m2
10:39 25 °C 19.8 °C 1010.6 hPa SE 0.4 km/h 0.2 km/h 72.8% 0.0 mm W/m2
10:44 25.2 °C 19.9 °C 1010.6 hPa Calm     72% 0.0 mm W/m2
10:49 25.5 °C 19.9 °C 1010.5 hPa SE 1.2 km/h 0.8 km/h 71.3% 0.0 mm W/m2
10:54 25.7 °C 19.7 °C 1010.6 hPa Calm     69.4% 0.0 mm W/m2
10:59 25.8 °C 19.7 °C 1010.5 hPa Calm     69% 0.0 mm W/m2
11:04 26.1 °C 19.8 °C 1010.6 hPa SE 2.5 km/h 1 km/h 68.6% 0.0 mm W/m2
11:09 26.2 °C 19.7 °C 1010.7 hPa SSE 3.8 km/h 3.7 km/h 67.7% 0.0 mm W/m2
11:14 26.2 °C 19.6 °C 1010.7 hPa South 3.7 km/h 1.9 km/h 67% 0.0 mm W/m2
11:19 26.2 °C 19.6 °C 1010.7 hPa South 3.6 km/h 2.1 km/h 67% 0.0 mm W/m2
11:24 26.3 °C 19.6 °C 1010.7 hPa South 2.5 km/h 1 km/h 67% 0.0 mm W/m2
11:29 26.3 °C 19.6 °C 1010.7 hPa South 2.7 km/h 2.7 km/h 66.3% 0.0 mm W/m2
11:34 26.4 °C 19.7 °C 1010.6 hPa South 2.5 km/h 2.4 km/h 66.4% 0.0 mm W/m2
11:39 26.6 °C 19.6 °C 1010.6 hPa ESE 6 km/h 6 km/h 65.4% 0.0 mm W/m2
11:44 26.9 °C 19.9 °C 1010.7 hPa East 5.3 km/h 3.9 km/h 65.6% 0.0 mm W/m2
11:49 27.3 °C 20.1 °C 1010.6 hPa East 6 km/h 6.6 km/h 64.9% 0.0 mm W/m2
11:54 27.5 °C 20.1 °C 1010.6 hPa SE 7.9 km/h 7.7 km/h 64% 0.0 mm W/m2
11:59 27.7 °C 20.3 °C 1010.6 hPa ESE 5.9 km/h 5.3 km/h 64.1% 0.0 mm W/m2
12:04 27.8 °C 20.4 °C 1010.6 hPa ESE 3.8 km/h 3.9 km/h 64% 0.0 mm W/m2
12:09 28.1 °C 20.6 °C 1010.5 hPa SE 4.7 km/h 3.5 km/h 63.8% 0.0 mm W/m2
12:14 28.2 °C 20.5 °C 1010.6 hPa South 3.8 km/h 2.9 km/h 63.2% 0.0 mm W/m2
12:19 28.4 °C 20.7 °C 1010.5 hPa SE 5.4 km/h 5.6 km/h 63% 0.0 mm W/m2
12:24 28.5 °C 20.9 °C 1010.5 hPa ESE 6.3 km/h 6.4 km/h 63.2% 0.0 mm W/m2
12:29 28.7 °C 20.9 °C 1010.4 hPa ESE 3.9 km/h 2.9 km/h 62.9% 0.0 mm W/m2
12:34 28.9 °C 20.4 °C 1010.5 hPa ENE 6.4 km/h 4.2 km/h 60.2% 0.0 mm W/m2
12:39 28.9 °C 20.2 °C 1010.4 hPa ESE 5.1 km/h 4 km/h 59.3% 0.0 mm W/m2
12:44 29 °C 19.8 °C 1010.4 hPa SE 3.9 km/h 3.5 km/h 57.4% 0.0 mm W/m2
12:49 29.2 °C 20.3 °C 1010.4 hPa SE 3.2 km/h 1.8 km/h 59% 0.0 mm W/m2
Genderen, Netherlands, EU
Compliments of Weather Underground - 2 mb